sensor_id;sensor_type;location;lat;lon;timestamp;temperature;humidity
2453;DHT22;63678;47.994;7.854;2023-09-30T00:01:49;18.90;99.90
2453;DHT22;63678;47.994;7.854;2023-09-30T00:04:21;18.80;99.90
2453;DHT22;63678;47.994;7.854;2023-09-30T00:06:53;18.70;99.90
2453;DHT22;63678;47.994;7.854;2023-09-30T00:09:26;19.00;99.90
2453;DHT22;63678;47.994;7.854;2023-09-30T00:11:58;18.90;99.90
2453;DHT22;63678;47.994;7.854;2023-09-30T00:14:31;18.80;99.90
2453;DHT22;63678;47.994;7.854;2023-09-30T00:17:04;18.80;99.90
2453;DHT22;63678;47.994;7.854;2023-09-30T00:19:36;18.70;99.90
2453;DHT22;63678;47.994;7.854;2023-09-30T00:24:41;18.30;99.90
2453;DHT22;63678;47.994;7.854;2023-09-30T00:27:13;18.40;99.90
2453;DHT22;63678;47.994;7.854;2023-09-30T00:29:45;18.30;99.90
2453;DHT22;63678;47.994;7.854;2023-09-30T00:32:18;18.20;99.90
2453;DHT22;63678;47.994;7.854;2023-09-30T00:34:50;18.50;99.90
2453;DHT22;63678;47.994;7.854;2023-09-30T00:37:24;18.40;99.90
2453;DHT22;63678;47.994;7.854;2023-09-30T00:39:56;18.20;99.90
2453;DHT22;63678;47.994;7.854;2023-09-30T00:42:28;18.10;99.90
2453;DHT22;63678;47.994;7.854;2023-09-30T00:45:00;18.00;99.90
2453;DHT22;63678;47.994;7.854;2023-09-30T00:47:34;18.00;99.90
2453;DHT22;63678;47.994;7.854;2023-09-30T00:50:08;18.20;99.90
2453;DHT22;63678;47.994;7.854;2023-09-30T00:52:43;18.20;99.90
2453;DHT22;63678;47.994;7.854;2023-09-30T00:55:17;18.40;99.90
2453;DHT22;63678;47.994;7.854;2023-09-30T00:57:50;18.10;99.90
2453;DHT22;63678;47.994;7.854;2023-09-30T01:00:23;18.00;99.90
2453;DHT22;63678;47.994;7.854;2023-09-30T01:05:36;17.60;99.90
2453;DHT22;63678;47.994;7.854;2023-09-30T01:08:08;17.90;99.90
2453;DHT22;63678;47.994;7.854;2023-09-30T01:10:40;17.80;99.90
2453;DHT22;63678;47.994;7.854;2023-09-30T01:13:12;17.70;99.90
2453;DHT22;63678;47.994;7.854;2023-09-30T01:15:45;17.30;99.90
2453;DHT22;63678;47.994;7.854;2023-09-30T01:18:19;17.40;99.90
2453;DHT22;63678;47.994;7.854;2023-09-30T01:20:52;17.60;99.90
2453;DHT22;63678;47.994;7.854;2023-09-30T01:23:25;17.50;99.90
2453;DHT22;63678;47.994;7.854;2023-09-30T01:25:57;18.00;99.90
2453;DHT22;63678;47.994;7.854;2023-09-30T01:28:36;18.20;99.90
2453;DHT22;63678;47.994;7.854;2023-09-30T01:31:09;18.30;99.90
2453;DHT22;63678;47.994;7.854;2023-09-30T01:33:41;18.30;99.90
2453;DHT22;63678;47.994;7.854;2023-09-30T01:36:14;18.30;99.90
2453;DHT22;63678;47.994;7.854;2023-09-30T01:38:47;18.20;99.90
2453;DHT22;63678;47.994;7.854;2023-09-30T01:41:20;18.30;99.90
2453;DHT22;63678;47.994;7.854;2023-09-30T01:46:25;17.90;99.90
2453;DHT22;63678;47.994;7.854;2023-09-30T01:48:57;17.90;99.90
2453;DHT22;63678;47.994;7.854;2023-09-30T01:51:30;17.90;99.90
2453;DHT22;63678;47.994;7.854;2023-09-30T01:54:02;18.00;99.90
2453;DHT22;63678;47.994;7.854;2023-09-30T01:56:35;18.30;99.90
2453;DHT22;63678;47.994;7.854;2023-09-30T01:59:07;18.30;99.90
2453;DHT22;63678;47.994;7.854;2023-09-30T02:01:39;18.30;99.90
2453;DHT22;63678;47.994;7.854;2023-09-30T02:04:12;18.30;99.90
2453;DHT22;63678;47.994;7.854;2023-09-30T02:06:47;18.30;99.90
2453;DHT22;63678;47.994;7.854;2023-09-30T02:09:19;18.20;99.90
2453;DHT22;63678;47.994;7.854;2023-09-30T02:11:52;18.20;99.90
2453;DHT22;63678;47.994;7.854;2023-09-30T02:14:24;18.10;99.90
2453;DHT22;63678;47.994;7.854;2023-09-30T02:16:57;18.30;99.90
2453;DHT22;63678;47.994;7.854;2023-09-30T02:19:29;17.80;99.90
2453;DHT22;63678;47.994;7.854;2023-09-30T02:22:03;17.40;99.90
2453;DHT22;63678;47.994;7.854;2023-09-30T02:24:36;17.40;99.90
2453;DHT22;63678;47.994;7.854;2023-09-30T02:27:09;17.50;99.90
2453;DHT22;63678;47.994;7.854;2023-09-30T02:29:41;17.60;99.90
2453;DHT22;63678;47.994;7.854;2023-09-30T02:32:13;17.80;99.90
2453;DHT22;63678;47.994;7.854;2023-09-30T02:34:46;17.40;99.90
2453;DHT22;63678;47.994;7.854;2023-09-30T02:39:51;17.40;99.90
2453;DHT22;63678;47.994;7.854;2023-09-30T02:42:24;17.20;99.90
2453;DHT22;63678;47.994;7.854;2023-09-30T02:44:58;17.50;99.90
2453;DHT22;63678;47.994;7.854;2023-09-30T02:47:32;17.50;99.90
2453;DHT22;63678;47.994;7.854;2023-09-30T02:50:06;17.60;99.90
2453;DHT22;63678;47.994;7.854;2023-09-30T02:52:48;17.80;99.90
2453;DHT22;63678;47.994;7.854;2023-09-30T02:57:54;17.70;99.90
2453;DHT22;63678;47.994;7.854;2023-09-30T03:00:26;18.00;99.90
2453;DHT22;63678;47.994;7.854;2023-09-30T03:03:00;17.80;99.90
2453;DHT22;63678;47.994;7.854;2023-09-30T03:05:34;17.80;99.90
2453;DHT22;63678;47.994;7.854;2023-09-30T03:08:06;17.60;99.90
2453;DHT22;63678;47.994;7.854;2023-09-30T03:10:38;17.70;99.90
2453;DHT22;63678;47.994;7.854;2023-09-30T03:13:12;17.70;99.90
2453;DHT22;63678;47.994;7.854;2023-09-30T03:15:46;17.50;99.90
2453;DHT22;63678;47.994;7.854;2023-09-30T03:18:18;17.80;99.90
2453;DHT22;63678;47.994;7.854;2023-09-30T03:20:59;17.20;99.90
2453;DHT22;63678;47.994;7.854;2023-09-30T03:23:32;17.40;99.90
2453;DHT22;63678;47.994;7.854;2023-09-30T03:26:05;17.50;99.90
2453;DHT22;63678;47.994;7.854;2023-09-30T03:31:19;16.80;99.90
2453;DHT22;63678;47.994;7.854;2023-09-30T03:33:52;16.00;99.90
2453;DHT22;63678;47.994;7.854;2023-09-30T03:39:01;15.50;99.90
2453;DHT22;63678;47.994;7.854;2023-09-30T03:41:38;15.40;99.90
2453;DHT22;63678;47.994;7.854;2023-09-30T03:44:11;15.40;99.90
2453;DHT22;63678;47.994;7.854;2023-09-30T03:46:43;15.40;99.90
2453;DHT22;63678;47.994;7.854;2023-09-30T03:49:15;15.30;99.90
2453;DHT22;63678;47.994;7.854;2023-09-30T03:51:48;15.30;99.90
2453;DHT22;63678;47.994;7.854;2023-09-30T03:54:22;15.30;99.90
2453;DHT22;63678;47.994;7.854;2023-09-30T03:56:55;15.40;99.90
2453;DHT22;63678;47.994;7.854;2023-09-30T03:59:28;15.40;99.90
2453;DHT22;63678;47.994;7.854;2023-09-30T04:02:00;15.30;99.90
2453;DHT22;63678;47.994;7.854;2023-09-30T04:04:33;15.30;99.90
2453;DHT22;63678;47.994;7.854;2023-09-30T04:07:06;15.30;99.90
2453;DHT22;63678;47.994;7.854;2023-09-30T04:09:39;15.30;99.90
2453;DHT22;63678;47.994;7.854;2023-09-30T04:14:44;15.20;99.90
2453;DHT22;63678;47.994;7.854;2023-09-30T04:17:16;15.20;99.90
2453;DHT22;63678;47.994;7.854;2023-09-30T04:19:49;15.10;99.90
2453;DHT22;63678;47.994;7.854;2023-09-30T04:22:25;15.10;99.90
2453;DHT22;63678;47.994;7.854;2023-09-30T04:24:57;15.10;99.90
2453;DHT22;63678;47.994;7.854;2023-09-30T04:27:30;14.90;99.90
2453;DHT22;63678;47.994;7.854;2023-09-30T04:30:03;14.80;99.90
2453;DHT22;63678;47.994;7.854;2023-09-30T04:32:41;14.70;99.90
2453;DHT22;63678;47.994;7.854;2023-09-30T04:35:13;14.60;99.90
2453;DHT22;63678;47.994;7.854;2023-09-30T04:40:18;14.50;99.90
2453;DHT22;63678;47.994;7.854;2023-09-30T04:45:30;14.60;99.90
2453;DHT22;63678;47.994;7.854;2023-09-30T04:48:02;14.80;99.90
2453;DHT22;63678;47.994;7.854;2023-09-30T04:50:36;14.90;99.90
2453;DHT22;63678;47.994;7.854;2023-09-30T04:53:10;15.00;99.90
2453;DHT22;63678;47.994;7.854;2023-09-30T04:55:46;15.10;99.90
2453;DHT22;63678;47.994;7.854;2023-09-30T04:58:21;15.20;99.90
2453;DHT22;63678;47.994;7.854;2023-09-30T05:00:57;15.20;99.90
2453;DHT22;63678;47.994;7.854;2023-09-30T05:06:02;15.30;99.90
2453;DHT22;63678;47.994;7.854;2023-09-30T05:08:35;15.40;99.90
2453;DHT22;63678;47.994;7.854;2023-09-30T05:11:08;15.40;99.90
2453;DHT22;63678;47.994;7.854;2023-09-30T05:16:13;15.10;99.90
2453;DHT22;63678;47.994;7.854;2023-09-30T05:18:45;15.10;99.90
2453;DHT22;63678;47.994;7.854;2023-09-30T05:21:20;15.10;99.90
2453;DHT22;63678;47.994;7.854;2023-09-30T05:23:53;15.10;99.90
2453;DHT22;63678;47.994;7.854;2023-09-30T05:26:26;15.10;99.90
2453;DHT22;63678;47.994;7.854;2023-09-30T05:28:58;15.30;99.90
2453;DHT22;63678;47.994;7.854;2023-09-30T05:31:31;15.30;99.90
2453;DHT22;63678;47.994;7.854;2023-09-30T05:34:04;15.40;99.90
2453;DHT22;63678;47.994;7.854;2023-09-30T05:39:09;15.70;99.90
2453;DHT22;63678;47.994;7.854;2023-09-30T05:41:42;15.70;99.90
2453;DHT22;63678;47.994;7.854;2023-09-30T05:44:14;15.70;99.90
2453;DHT22;63678;47.994;7.854;2023-09-30T05:46:47;15.80;99.90
2453;DHT22;63678;47.994;7.854;2023-09-30T05:49:19;15.70;99.90
2453;DHT22;63678;47.994;7.854;2023-09-30T05:51:52;15.70;99.90
2453;DHT22;63678;47.994;7.854;2023-09-30T05:54:25;15.50;99.90
2453;DHT22;63678;47.994;7.854;2023-09-30T05:56:57;15.40;99.90
2453;DHT22;63678;47.994;7.854;2023-09-30T05:59:30;15.40;99.90
2453;DHT22;63678;47.994;7.854;2023-09-30T06:02:02;15.30;99.90
2453;DHT22;63678;47.994;7.854;2023-09-30T06:04:35;15.20;99.90
2453;DHT22;63678;47.994;7.854;2023-09-30T06:07:08;15.10;99.90
2453;DHT22;63678;47.994;7.854;2023-09-30T06:09:40;15.00;99.90
2453;DHT22;63678;47.994;7.854;2023-09-30T06:12:13;15.00;99.90
2453;DHT22;63678;47.994;7.854;2023-09-30T06:14:45;15.10;99.90
2453;DHT22;63678;47.994;7.854;2023-09-30T06:17:18;15.10;99.90
2453;DHT22;63678;47.994;7.854;2023-09-30T06:19:54;15.10;99.90
2453;DHT22;63678;47.994;7.854;2023-09-30T06:22:27;16.00;99.90
2453;DHT22;63678;47.994;7.854;2023-09-30T06:25:01;16.80;99.90
2453;DHT22;63678;47.994;7.854;2023-09-30T06:30:10;17.50;99.90
2453;DHT22;63678;47.994;7.854;2023-09-30T06:32:44;16.80;99.90
2453;DHT22;63678;47.994;7.854;2023-09-30T06:35:17;16.10;99.90
2453;DHT22;63678;47.994;7.854;2023-09-30T06:37:53;15.80;99.90
2453;DHT22;63678;47.994;7.854;2023-09-30T06:40:26;15.80;99.90
2453;DHT22;63678;47.994;7.854;2023-09-30T06:42:58;15.90;99.90
2453;DHT22;63678;47.994;7.854;2023-09-30T06:45:31;16.10;99.90
2453;DHT22;63678;47.994;7.854;2023-09-30T06:48:05;16.20;99.90
2453;DHT22;63678;47.994;7.854;2023-09-30T06:50:48;16.30;99.90
2453;DHT22;63678;47.994;7.854;2023-09-30T06:53:21;16.30;99.90
2453;DHT22;63678;47.994;7.854;2023-09-30T06:55:54;16.30;99.90
2453;DHT22;63678;47.994;7.854;2023-09-30T06:58:26;16.40;99.90
2453;DHT22;63678;47.994;7.854;2023-09-30T07:00:59;16.60;99.90
2453;DHT22;63678;47.994;7.854;2023-09-30T07:03:31;16.70;99.90
2453;DHT22;63678;47.994;7.854;2023-09-30T07:06:27;16.70;99.90
2453;DHT22;63678;47.994;7.854;2023-09-30T07:08:59;17.00;99.90
2453;DHT22;63678;47.994;7.854;2023-09-30T07:11:32;17.10;99.90
2453;DHT22;63678;47.994;7.854;2023-09-30T07:14:05;17.20;99.90
2453;DHT22;63678;47.994;7.854;2023-09-30T07:16:37;17.20;99.90
2453;DHT22;63678;47.994;7.854;2023-09-30T07:19:11;17.30;99.90
2453;DHT22;63678;47.994;7.854;2023-09-30T07:21:46;17.20;99.90
2453;DHT22;63678;47.994;7.854;2023-09-30T07:24:35;17.30;99.90
2453;DHT22;63678;47.994;7.854;2023-09-30T07:27:08;17.50;99.90
2453;DHT22;63678;47.994;7.854;2023-09-30T07:29:59;17.60;99.90
2453;DHT22;63678;47.994;7.854;2023-09-30T07:32:32;17.90;99.90
2453;DHT22;63678;47.994;7.854;2023-09-30T07:35:04;17.90;99.90
2453;DHT22;63678;47.994;7.854;2023-09-30T07:37:37;17.80;99.90
2453;DHT22;63678;47.994;7.854;2023-09-30T07:40:11;17.70;99.90
2453;DHT22;63678;47.994;7.854;2023-09-30T07:42:43;17.60;99.90
2453;DHT22;63678;47.994;7.854;2023-09-30T07:45:16;17.70;99.90
2453;DHT22;63678;47.994;7.854;2023-09-30T07:47:49;17.90;99.90
2453;DHT22;63678;47.994;7.854;2023-09-30T07:50:28;18.20;99.90
2453;DHT22;63678;47.994;7.854;2023-09-30T07:55:33;18.40;99.90
2453;DHT22;63678;47.994;7.854;2023-09-30T07:58:05;18.40;99.90
2453;DHT22;63678;47.994;7.854;2023-09-30T08:03:15;18.50;99.90
2453;DHT22;63678;47.994;7.854;2023-09-30T08:05:49;18.80;99.90
2453;DHT22;63678;47.994;7.854;2023-09-30T08:10:56;19.20;99.90
2453;DHT22;63678;47.994;7.854;2023-09-30T08:13:28;19.30;99.90
2453;DHT22;63678;47.994;7.854;2023-09-30T08:16:01;19.50;99.90
2453;DHT22;63678;47.994;7.854;2023-09-30T08:18:34;19.60;99.90
2453;DHT22;63678;47.994;7.854;2023-09-30T08:21:09;19.60;99.90
2453;DHT22;63678;47.994;7.854;2023-09-30T08:23:43;19.80;99.90
2453;DHT22;63678;47.994;7.854;2023-09-30T08:26:15;20.00;99.90
2453;DHT22;63678;47.994;7.854;2023-09-30T08:28:48;20.00;99.90
2453;DHT22;63678;47.994;7.854;2023-09-30T08:31:20;20.30;99.90
2453;DHT22;63678;47.994;7.854;2023-09-30T08:33:53;20.50;99.90
2453;DHT22;63678;47.994;7.854;2023-09-30T08:36:26;20.40;99.90
2453;DHT22;63678;47.994;7.854;2023-09-30T08:41:33;20.00;99.90
2453;DHT22;63678;47.994;7.854;2023-09-30T08:46:39;19.90;99.90
2453;DHT22;63678;47.994;7.854;2023-09-30T08:49:13;19.70;99.90
2453;DHT22;63678;47.994;7.854;2023-09-30T08:51:48;18.00;99.90
2453;DHT22;63678;47.994;7.854;2023-09-30T08:54:21;19.40;99.90
2453;DHT22;63678;47.994;7.854;2023-09-30T08:56:55;19.40;99.90
2453;DHT22;63678;47.994;7.854;2023-09-30T08:59:27;19.40;99.90
2453;DHT22;63678;47.994;7.854;2023-09-30T09:02:00;19.40;99.90
2453;DHT22;63678;47.994;7.854;2023-09-30T09:07:05;19.40;99.90
2453;DHT22;63678;47.994;7.854;2023-09-30T09:09:38;19.40;99.90
2453;DHT22;63678;47.994;7.854;2023-09-30T09:12:20;19.60;99.90
2453;DHT22;63678;47.994;7.854;2023-09-30T09:14:52;20.00;99.90
2453;DHT22;63678;47.994;7.854;2023-09-30T09:17:43;20.50;99.90
2453;DHT22;63678;47.994;7.854;2023-09-30T09:20:19;20.10;99.90
2453;DHT22;63678;47.994;7.854;2023-09-30T09:22:55;20.10;99.90
2453;DHT22;63678;47.994;7.854;2023-09-30T09:25:28;20.20;99.90
2453;DHT22;63678;47.994;7.854;2023-09-30T09:28:00;20.30;99.90
2453;DHT22;63678;47.994;7.854;2023-09-30T09:30:33;20.60;99.90
2453;DHT22;63678;47.994;7.854;2023-09-30T09:33:06;20.40;99.90
2453;DHT22;63678;47.994;7.854;2023-09-30T09:35:39;20.50;99.90
2453;DHT22;63678;47.994;7.854;2023-09-30T09:38:11;21.30;99.90
2453;DHT22;63678;47.994;7.854;2023-09-30T09:40:43;21.90;99.90
2453;DHT22;63678;47.994;7.854;2023-09-30T09:43:16;21.60;99.90
2453;DHT22;63678;47.994;7.854;2023-09-30T09:45:49;21.70;99.90
2453;DHT22;63678;47.994;7.854;2023-09-30T09:48:22;21.00;99.90
2453;DHT22;63678;47.994;7.854;2023-09-30T09:50:54;21.20;99.90
2453;DHT22;63678;47.994;7.854;2023-09-30T09:53:29;21.20;99.90
2453;DHT22;63678;47.994;7.854;2023-09-30T09:56:03;21.60;99.90
2453;DHT22;63678;47.994;7.854;2023-09-30T09:58:36;21.80;99.90
2453;DHT22;63678;47.994;7.854;2023-09-30T10:01:12;21.50;99.90
2453;DHT22;63678;47.994;7.854;2023-09-30T10:03:45;21.50;99.90
2453;DHT22;63678;47.994;7.854;2023-09-30T10:08:53;21.30;99.90
2453;DHT22;63678;47.994;7.854;2023-09-30T10:11:27;25.40;99.90
2453;DHT22;63678;47.994;7.854;2023-09-30T10:19:12;22.10;99.90
2453;DHT22;63678;47.994;7.854;2023-09-30T10:27:34;22.40;99.90
2453;DHT22;63678;47.994;7.854;2023-09-30T10:30:09;22.50;99.90
2453;DHT22;63678;47.994;7.854;2023-09-30T10:41:02;22.90;99.90
2453;DHT22;63678;47.994;7.854;2023-09-30T10:43:38;23.40;99.90
2453;DHT22;63678;47.994;7.854;2023-09-30T10:51:57;23.40;99.90
2453;DHT22;63678;47.994;7.854;2023-09-30T10:54:33;22.80;99.90
2453;DHT22;63678;47.994;7.854;2023-09-30T10:57:10;23.30;99.90
2453;DHT22;63678;47.994;7.854;2023-09-30T10:59:42;23.30;99.90
2453;DHT22;63678;47.994;7.854;2023-09-30T11:02:57;23.50;99.90
2453;DHT22;63678;47.994;7.854;2023-09-30T11:05:33;23.90;99.90
2453;DHT22;63678;47.994;7.854;2023-09-30T11:08:28;23.10;99.90
2453;DHT22;63678;47.994;7.854;2023-09-30T11:11:04;23.20;99.90
2453;DHT22;63678;47.994;7.854;2023-09-30T11:13:36;23.20;99.90
2453;DHT22;63678;47.994;7.854;2023-09-30T11:16:11;23.00;99.90
2453;DHT22;63678;47.994;7.854;2023-09-30T11:18:43;23.60;99.90
2453;DHT22;63678;47.994;7.854;2023-09-30T11:21:16;23.50;99.90
2453;DHT22;63678;47.994;7.854;2023-09-30T11:23:48;23.30;99.90
2453;DHT22;63678;47.994;7.854;2023-09-30T11:26:30;23.70;99.90
2453;DHT22;63678;47.994;7.854;2023-09-30T11:29:11;23.80;99.90
2453;DHT22;63678;47.994;7.854;2023-09-30T11:31:49;24.20;99.90
2453;DHT22;63678;47.994;7.854;2023-09-30T11:34:36;24.20;99.90
2453;DHT22;63678;47.994;7.854;2023-09-30T11:37:09;23.70;99.90
2453;DHT22;63678;47.994;7.854;2023-09-30T11:39:42;23.70;99.90
2453;DHT22;63678;47.994;7.854;2023-09-30T11:42:15;23.60;99.90
2453;DHT22;63678;47.994;7.854;2023-09-30T11:47:29;23.60;99.90
2453;DHT22;63678;47.994;7.854;2023-09-30T11:50:06;23.90;99.90
2453;DHT22;63678;47.994;7.854;2023-09-30T11:52:39;24.00;99.90
2453;DHT22;63678;47.994;7.854;2023-09-30T11:55:16;24.30;99.90
2453;DHT22;63678;47.994;7.854;2023-09-30T11:57:51;24.40;99.90
2453;DHT22;63678;47.994;7.854;2023-09-30T12:00:26;24.40;99.90
2453;DHT22;63678;47.994;7.854;2023-09-30T12:02:58;24.20;99.90
2453;DHT22;63678;47.994;7.854;2023-09-30T12:05:31;24.50;99.90
2453;DHT22;63678;47.994;7.854;2023-09-30T12:08:04;24.50;99.90
2453;DHT22;63678;47.994;7.854;2023-09-30T12:10:37;24.00;99.90
2453;DHT22;63678;47.994;7.854;2023-09-30T12:13:09;24.80;99.90
2453;DHT22;63678;47.994;7.854;2023-09-30T12:15:43;24.30;99.90
2453;DHT22;63678;47.994;7.854;2023-09-30T12:18:16;24.40;99.90
2453;DHT22;63678;47.994;7.854;2023-09-30T12:20:55;24.20;99.90
2453;DHT22;63678;47.994;7.854;2023-09-30T12:23:28;23.80;99.90
2453;DHT22;63678;47.994;7.854;2023-09-30T12:26:00;23.80;99.90
2453;DHT22;63678;47.994;7.854;2023-09-30T12:28:44;23.30;99.90
2453;DHT22;63678;47.994;7.854;2023-09-30T12:31:17;23.20;99.90
2453;DHT22;63678;47.994;7.854;2023-09-30T12:33:50;23.30;99.90
2453;DHT22;63678;47.994;7.854;2023-09-30T12:38:57;23.50;99.90
2453;DHT22;63678;47.994;7.854;2023-09-30T12:41:30;23.60;99.90
2453;DHT22;63678;47.994;7.854;2023-09-30T12:44:05;23.90;99.90
2453;DHT22;63678;47.994;7.854;2023-09-30T12:46:37;23.60;99.90
2453;DHT22;63678;47.994;7.854;2023-09-30T12:49:11;23.70;99.90
2453;DHT22;63678;47.994;7.854;2023-09-30T12:51:44;23.90;99.90
2453;DHT22;63678;47.994;7.854;2023-09-30T12:54:17;24.00;99.90
2453;DHT22;63678;47.994;7.854;2023-09-30T12:56:51;24.00;99.90
2453;DHT22;63678;47.994;7.854;2023-09-30T12:59:23;23.50;99.90
2453;DHT22;63678;47.994;7.854;2023-09-30T13:01:58;23.60;99.90
2453;DHT22;63678;47.994;7.854;2023-09-30T13:04:30;23.60;99.90
2453;DHT22;63678;47.994;7.854;2023-09-30T13:07:02;23.60;99.90
2453;DHT22;63678;47.994;7.854;2023-09-30T13:12:09;23.70;99.90
2453;DHT22;63678;47.994;7.854;2023-09-30T13:14:42;23.90;99.90
2453;DHT22;63678;47.994;7.854;2023-09-30T13:19:48;23.80;99.90
2453;DHT22;63678;47.994;7.854;2023-09-30T13:22:20;23.70;99.90
2453;DHT22;63678;47.994;7.854;2023-09-30T13:24:53;23.60;99.90
2453;DHT22;63678;47.994;7.854;2023-09-30T13:27:25;23.70;99.90
2453;DHT22;63678;47.994;7.854;2023-09-30T13:29:58;24.00;99.90
2453;DHT22;63678;47.994;7.854;2023-09-30T13:32:30;23.70;99.90
2453;DHT22;63678;47.994;7.854;2023-09-30T13:35:06;23.20;99.90
2453;DHT22;63678;47.994;7.854;2023-09-30T13:37:38;23.30;99.90
2453;DHT22;63678;47.994;7.854;2023-09-30T13:40:13;23.40;99.90
2453;DHT22;63678;47.994;7.854;2023-09-30T13:42:46;23.30;99.90
2453;DHT22;63678;47.994;7.854;2023-09-30T13:45:18;23.30;99.90
2453;DHT22;63678;47.994;7.854;2023-09-30T13:47:51;23.20;99.90
2453;DHT22;63678;47.994;7.854;2023-09-30T13:50:23;23.30;99.90
2453;DHT22;63678;47.994;7.854;2023-09-30T13:52:56;23.40;99.90
2453;DHT22;63678;47.994;7.854;2023-09-30T13:55:29;23.40;99.90
2453;DHT22;63678;47.994;7.854;2023-09-30T13:58:01;23.20;99.90
2453;DHT22;63678;47.994;7.854;2023-09-30T14:00:34;23.20;99.90
2453;DHT22;63678;47.994;7.854;2023-09-30T14:03:06;23.30;99.90
2453;DHT22;63678;47.994;7.854;2023-09-30T14:05:43;23.20;99.90
2453;DHT22;63678;47.994;7.854;2023-09-30T14:08:25;23.10;99.90
2453;DHT22;63678;47.994;7.854;2023-09-30T14:10:59;23.30;99.90
2453;DHT22;63678;47.994;7.854;2023-09-30T14:16:05;23.00;99.90
2453;DHT22;63678;47.994;7.854;2023-09-30T14:18:38;23.00;99.90
2453;DHT22;63678;47.994;7.854;2023-09-30T14:21:11;23.00;99.90
2453;DHT22;63678;47.994;7.854;2023-09-30T14:23:43;23.10;99.90
2453;DHT22;63678;47.994;7.854;2023-09-30T14:28:49;23.00;99.90
2453;DHT22;63678;47.994;7.854;2023-09-30T14:31:22;23.10;99.90
2453;DHT22;63678;47.994;7.854;2023-09-30T14:33:54;22.90;99.90
2453;DHT22;63678;47.994;7.854;2023-09-30T14:36:27;22.90;99.90
2453;DHT22;63678;47.994;7.854;2023-09-30T14:38:59;22.90;99.90
2453;DHT22;63678;47.994;7.854;2023-09-30T14:44:18;22.80;99.90
2453;DHT22;63678;47.994;7.854;2023-09-30T14:52:02;22.70;99.90
2453;DHT22;63678;47.994;7.854;2023-09-30T14:59:44;22.70;99.90
2453;DHT22;63678;47.994;7.854;2023-09-30T15:07:22;22.50;99.90
2453;DHT22;63678;47.994;7.854;2023-09-30T15:09:54;22.50;99.90
2453;DHT22;63678;47.994;7.854;2023-09-30T15:12:26;22.40;99.90
2453;DHT22;63678;47.994;7.854;2023-09-30T15:14:59;22.50;99.90
2453;DHT22;63678;47.994;7.854;2023-09-30T15:20:06;22.50;99.90
2453;DHT22;63678;47.994;7.854;2023-09-30T15:25:12;22.40;99.90
2453;DHT22;63678;47.994;7.854;2023-09-30T15:27:46;22.20;99.90
2453;DHT22;63678;47.994;7.854;2023-09-30T15:30:19;22.20;99.90
2453;DHT22;63678;47.994;7.854;2023-09-30T15:35:27;22.20;99.90
2453;DHT22;63678;47.994;7.854;2023-09-30T15:40:52;22.10;99.90
2453;DHT22;63678;47.994;7.854;2023-09-30T15:43:31;22.00;99.90
2453;DHT22;63678;47.994;7.854;2023-09-30T15:48:41;22.20;99.90
2453;DHT22;63678;47.994;7.854;2023-09-30T15:51:13;22.20;99.90
2453;DHT22;63678;47.994;7.854;2023-09-30T15:53:46;22.20;99.90
2453;DHT22;63678;47.994;7.854;2023-09-30T15:56:18;22.40;99.90
2453;DHT22;63678;47.994;7.854;2023-09-30T15:58:50;22.50;99.90
2453;DHT22;63678;47.994;7.854;2023-09-30T16:01:24;22.50;99.90
2453;DHT22;63678;47.994;7.854;2023-09-30T16:03:57;22.30;99.90
2453;DHT22;63678;47.994;7.854;2023-09-30T16:09:03;21.80;99.90
2453;DHT22;63678;47.994;7.854;2023-09-30T16:11:36;21.40;99.90
2453;DHT22;63678;47.994;7.854;2023-09-30T16:19:14;21.40;99.90
2453;DHT22;63678;47.994;7.854;2023-09-30T16:21:47;21.40;99.90
2453;DHT22;63678;47.994;7.854;2023-09-30T16:26:52;21.00;99.90
2453;DHT22;63678;47.994;7.854;2023-09-30T16:34:31;20.80;99.90
2453;DHT22;63678;47.994;7.854;2023-09-30T16:37:04;20.90;99.90
2453;DHT22;63678;47.994;7.854;2023-09-30T16:39:36;20.80;99.90
2453;DHT22;63678;47.994;7.854;2023-09-30T16:42:09;20.80;99.90
2453;DHT22;63678;47.994;7.854;2023-09-30T16:44:41;20.70;99.90
2453;DHT22;63678;47.994;7.854;2023-09-30T16:47:14;20.60;99.90
2453;DHT22;63678;47.994;7.854;2023-09-30T16:49:46;20.40;99.90
2453;DHT22;63678;47.994;7.854;2023-09-30T16:54:53;20.20;99.90
2453;DHT22;63678;47.994;7.854;2023-09-30T16:59:58;20.30;99.90
2453;DHT22;63678;47.994;7.854;2023-09-30T17:22:57;19.40;99.90
2453;DHT22;63678;47.994;7.854;2023-09-30T17:25:30;19.40;99.90
2453;DHT22;63678;47.994;7.854;2023-09-30T17:28:03;19.40;99.90
2453;DHT22;63678;47.994;7.854;2023-09-30T17:30:36;19.10;99.90
2453;DHT22;63678;47.994;7.854;2023-09-30T17:33:13;18.90;99.90
2453;DHT22;63678;47.994;7.854;2023-09-30T17:35:46;18.90;99.90
2453;DHT22;63678;47.994;7.854;2023-09-30T17:38:19;19.10;99.90
2453;DHT22;63678;47.994;7.854;2023-09-30T17:40:52;19.00;99.90
2453;DHT22;63678;47.994;7.854;2023-09-30T17:43:24;19.20;99.90
2453;DHT22;63678;47.994;7.854;2023-09-30T17:46:14;19.00;99.90
2453;DHT22;63678;47.994;7.854;2023-09-30T17:53:53;19.00;99.90
2453;DHT22;63678;47.994;7.854;2023-09-30T17:56:27;19.10;99.90
2453;DHT22;63678;47.994;7.854;2023-09-30T17:58:59;19.20;99.90
2453;DHT22;63678;47.994;7.854;2023-09-30T18:04:04;19.10;99.90
2453;DHT22;63678;47.994;7.854;2023-09-30T18:09:11;18.80;99.90
2453;DHT22;63678;47.994;7.854;2023-09-30T18:11:44;18.70;99.90
2453;DHT22;63678;47.994;7.854;2023-09-30T18:14:17;18.70;99.90
2453;DHT22;63678;47.994;7.854;2023-09-30T18:16:51;18.50;99.90
2453;DHT22;63678;47.994;7.854;2023-09-30T18:19:24;18.30;99.90
2453;DHT22;63678;47.994;7.854;2023-09-30T18:24:30;18.40;99.90
2453;DHT22;63678;47.994;7.854;2023-09-30T18:29:35;18.60;99.90
2453;DHT22;63678;47.994;7.854;2023-09-30T18:37:14;17.60;99.90
2453;DHT22;63678;47.994;7.854;2023-09-30T18:39:46;17.50;99.90
2453;DHT22;63678;47.994;7.854;2023-09-30T18:42:21;17.30;99.90
2453;DHT22;63678;47.994;7.854;2023-09-30T18:44:54;17.20;99.90
2453;DHT22;63678;47.994;7.854;2023-09-30T18:47:26;17.10;99.90
2453;DHT22;63678;47.994;7.854;2023-09-30T18:49:58;17.00;99.90
2453;DHT22;63678;47.994;7.854;2023-09-30T18:52:31;16.90;99.90
2453;DHT22;63678;47.994;7.854;2023-09-30T18:55:04;16.90;99.90
2453;DHT22;63678;47.994;7.854;2023-09-30T18:57:38;16.80;99.90
2453;DHT22;63678;47.994;7.854;2023-09-30T19:00:11;16.70;99.90
2453;DHT22;63678;47.994;7.854;2023-09-30T19:02:44;16.70;99.90
2453;DHT22;63678;47.994;7.854;2023-09-30T19:05:39;16.70;99.90
2453;DHT22;63678;47.994;7.854;2023-09-30T19:10:48;16.70;99.90
2453;DHT22;63678;47.994;7.854;2023-09-30T19:13:21;16.70;99.90
2453;DHT22;63678;47.994;7.854;2023-09-30T19:15:54;16.70;99.90
2453;DHT22;63678;47.994;7.854;2023-09-30T19:18:27;16.70;99.90
2453;DHT22;63678;47.994;7.854;2023-09-30T19:20:59;16.70;99.90
2453;DHT22;63678;47.994;7.854;2023-09-30T19:23:31;16.60;99.90
2453;DHT22;63678;47.994;7.854;2023-09-30T19:26:11;16.50;99.90
2453;DHT22;63678;47.994;7.854;2023-09-30T19:28:49;16.50;99.90
2453;DHT22;63678;47.994;7.854;2023-09-30T19:31:21;16.50;99.90
2453;DHT22;63678;47.994;7.854;2023-09-30T19:39:02;16.40;99.90
2453;DHT22;63678;47.994;7.854;2023-09-30T19:44:11;16.30;99.90